createdAt,value
2018-08-30T00:00:19.143Z,19.60
2018-08-30T00:02:47.640Z,19.60
2018-08-30T00:05:16.109Z,19.60
2018-08-30T00:07:44.593Z,19.60
2018-08-30T00:10:13.035Z,19.70
2018-08-30T00:12:41.564Z,19.80
2018-08-30T00:15:09.995Z,19.80
2018-08-30T00:17:38.456Z,19.80
2018-08-30T00:20:06.914Z,19.90
2018-08-30T00:22:35.377Z,19.90
2018-08-30T00:25:03.864Z,19.90
2018-08-30T00:27:32.303Z,19.90
2018-08-30T00:30:00.792Z,19.90
2018-08-30T00:32:29.213Z,20.00
2018-08-30T00:34:57.656Z,20.00
2018-08-30T00:37:26.099Z,20.00
2018-08-30T00:39:54.599Z,20.00
2018-08-30T00:42:23.044Z,20.00
2018-08-30T00:44:51.540Z,19.90
2018-08-30T00:47:21.285Z,19.90
2018-08-30T00:49:50.616Z,19.90
2018-08-30T00:52:19.581Z,19.90
2018-08-30T00:54:48.069Z,19.80
2018-08-30T00:57:17.060Z,19.70
2018-08-30T00:59:45.520Z,19.70
2018-08-30T01:02:14.000Z,19.60
2018-08-30T01:04:42.683Z,19.60
2018-08-30T01:07:11.167Z,19.60
2018-08-30T01:09:39.624Z,19.50
2018-08-30T01:12:08.092Z,19.50
2018-08-30T01:14:36.581Z,19.50
2018-08-30T01:17:05.053Z,19.50
2018-08-30T01:19:33.569Z,19.40
2018-08-30T01:22:02.041Z,19.40
2018-08-30T01:24:30.599Z,19.30
2018-08-30T01:26:59.048Z,19.30
2018-08-30T01:29:27.515Z,19.20
2018-08-30T01:31:56.340Z,19.20
2018-08-30T01:34:24.795Z,19.20
2018-08-30T01:36:53.256Z,19.20
2018-08-30T01:39:21.681Z,19.20
2018-08-30T01:41:50.150Z,19.10
2018-08-30T01:44:18.604Z,19.10
2018-08-30T01:46:47.064Z,19.10
2018-08-30T01:49:15.531Z,19.00
2018-08-30T01:51:44.005Z,18.90
2018-08-30T01:54:12.482Z,18.70
2018-08-30T01:56:40.944Z,18.60
2018-08-30T01:59:09.408Z,18.40
2018-08-30T02:01:37.888Z,18.30
2018-08-30T02:04:06.689Z,18.20
2018-08-30T02:06:35.172Z,18.20
2018-08-30T02:09:04.448Z,18.10
2018-08-30T02:11:32.952Z,18.00
2018-08-30T02:14:01.417Z,17.90
2018-08-30T02:16:30.456Z,17.90
2018-08-30T02:18:58.946Z,17.90
2018-08-30T02:21:27.424Z,17.80
2018-08-30T02:23:55.878Z,17.70
2018-08-30T02:26:24.328Z,17.70
2018-08-30T02:28:52.803Z,17.70
2018-08-30T02:31:21.289Z,17.70
2018-08-30T02:33:49.763Z,17.60
2018-08-30T02:36:18.251Z,17.60
2018-08-30T02:38:46.755Z,17.50
2018-08-30T02:41:15.215Z,17.50
2018-08-30T02:43:43.687Z,17.40
2018-08-30T02:46:12.150Z,17.40
2018-08-30T02:48:40.611Z,17.30
2018-08-30T02:51:09.409Z,17.30
2018-08-30T02:53:37.876Z,17.30
2018-08-30T02:56:06.346Z,17.30
2018-08-30T02:58:34.904Z,17.30
2018-08-30T03:01:03.372Z,17.30
2018-08-30T03:03:31.914Z,17.30
2018-08-30T03:06:00.378Z,17.20
2018-08-30T03:08:28.874Z,17.20
2018-08-30T03:10:57.332Z,17.20
2018-08-30T03:13:25.848Z,17.10
2018-08-30T03:15:54.303Z,17.10
2018-08-30T03:18:22.779Z,17.10
2018-08-30T03:20:53.567Z,17.10
2018-08-30T03:23:22.056Z,17.00
2018-08-30T03:25:51.083Z,17.00
2018-08-30T03:28:19.525Z,17.00
2018-08-30T03:30:47.997Z,17.00
2018-08-30T03:33:16.460Z,17.00
2018-08-30T03:35:45.039Z,17.10
2018-08-30T03:38:13.482Z,17.10
2018-08-30T03:40:42.445Z,17.00
2018-08-30T03:43:11.521Z,17.00
2018-08-30T03:45:40.237Z,16.90
2018-08-30T03:48:08.751Z,16.80
2018-08-30T03:50:37.198Z,16.80
2018-08-30T03:53:05.692Z,16.80
2018-08-30T03:55:34.214Z,16.70
2018-08-30T03:58:02.670Z,16.70
2018-08-30T04:00:31.127Z,16.60
2018-08-30T04:02:59.578Z,16.60
2018-08-30T04:05:28.048Z,16.50
2018-08-30T04:07:56.563Z,16.50
2018-08-30T04:10:25.040Z,16.50
2018-08-30T04:12:53.525Z,16.40
2018-08-30T04:15:22.022Z,16.30
2018-08-30T04:17:50.481Z,16.30
2018-08-30T04:20:18.948Z,16.20
2018-08-30T04:22:47.510Z,16.20
2018-08-30T04:25:15.952Z,16.20
2018-08-30T04:27:44.396Z,16.10
2018-08-30T04:30:12.867Z,16.10
2018-08-30T04:32:41.314Z,16.10
2018-08-30T04:35:09.759Z,16.00
2018-08-30T04:37:38.227Z,16.00
2018-08-30T04:40:06.701Z,16.00
2018-08-30T04:42:35.160Z,16.00
2018-08-30T04:45:03.635Z,15.90
2018-08-30T04:47:32.165Z,15.90
2018-08-30T04:50:00.618Z,15.90
2018-08-30T04:52:29.060Z,15.90
2018-08-30T04:54:57.521Z,15.90
2018-08-30T04:57:25.965Z,15.90
2018-08-30T04:59:54.408Z,15.90
2018-08-30T05:02:22.896Z,15.90
2018-08-30T05:04:51.381Z,15.90
2018-08-30T05:07:22.217Z,15.80
2018-08-30T05:09:56.744Z,15.80
2018-08-30T05:12:27.408Z,15.80
2018-08-30T05:14:58.197Z,15.70
2018-08-30T05:17:26.765Z,15.70
2018-08-30T05:19:55.297Z,15.70
2018-08-30T05:22:23.739Z,15.70
2018-08-30T05:24:52.180Z,15.70
2018-08-30T05:27:20.617Z,15.60
2018-08-30T05:29:49.121Z,15.60
2018-08-30T05:32:17.585Z,15.60
2018-08-30T05:34:46.137Z,15.60
2018-08-30T05:37:14.568Z,15.60
2018-08-30T05:39:45.936Z,15.60
2018-08-30T05:42:15.737Z,15.60
2018-08-30T05:44:44.245Z,15.60
2018-08-30T05:47:12.623Z,15.60
2018-08-30T05:49:41.076Z,15.60
2018-08-30T05:52:09.517Z,15.70
2018-08-30T05:54:38.012Z,15.70
2018-08-30T05:57:06.478Z,15.80
2018-08-30T05:59:34.920Z,15.80
2018-08-30T06:02:03.581Z,15.90
2018-08-30T06:04:32.008Z,15.90
2018-08-30T06:07:00.418Z,15.90
2018-08-30T06:09:28.849Z,15.90
2018-08-30T06:11:57.283Z,15.90
2018-08-30T06:14:25.704Z,16.00
2018-08-30T06:16:54.117Z,15.90
2018-08-30T06:19:22.560Z,15.80
2018-08-30T06:21:50.976Z,15.70
2018-08-30T06:24:19.411Z,15.70
2018-08-30T06:26:48.061Z,15.60
2018-08-30T06:29:16.566Z,15.60
2018-08-30T06:31:44.960Z,15.50
2018-08-30T06:34:13.383Z,15.60
2018-08-30T06:36:41.851Z,15.60
2018-08-30T06:39:10.294Z,15.60
2018-08-30T06:41:38.792Z,15.60
2018-08-30T06:44:07.228Z,15.60
2018-08-30T06:46:35.668Z,15.60
2018-08-30T06:49:04.108Z,15.60
2018-08-30T06:51:32.583Z,15.60
2018-08-30T06:54:01.031Z,15.50
2018-08-30T06:56:29.576Z,15.60
2018-08-30T06:58:58.036Z,15.60
2018-08-30T07:01:26.536Z,15.60
2018-08-30T07:03:54.931Z,15.60
2018-08-30T07:06:23.373Z,15.60
2018-08-30T07:08:51.787Z,15.60
2018-08-30T07:11:20.405Z,15.60
2018-08-30T07:13:48.835Z,15.60
2018-08-30T07:16:17.283Z,15.60
2018-08-30T07:18:45.720Z,15.60
2018-08-30T07:21:14.214Z,15.70
2018-08-30T07:23:42.593Z,15.80
2018-08-30T07:26:11.032Z,15.90
2018-08-30T07:28:39.578Z,15.80
2018-08-30T07:31:07.998Z,15.80
2018-08-30T07:33:36.492Z,15.80
2018-08-30T07:36:04.936Z,15.90
2018-08-30T07:38:33.384Z,15.90
2018-08-30T07:41:01.788Z,15.90
2018-08-30T07:43:30.215Z,15.80
2018-08-30T07:45:58.627Z,15.90
2018-08-30T07:48:27.060Z,15.80
2018-08-30T07:50:55.544Z,15.90
2018-08-30T07:53:23.909Z,16.00
2018-08-30T07:55:52.348Z,16.00
2018-08-30T07:58:20.780Z,16.00
2018-08-30T08:00:49.444Z,16.00
2018-08-30T08:03:18.972Z,16.00
2018-08-30T08:05:47.412Z,16.00
2018-08-30T08:08:16.098Z,16.10
2018-08-30T08:10:44.643Z,16.10
2018-08-30T08:13:13.108Z,16.10
2018-08-30T08:15:41.536Z,16.10
2018-08-30T08:18:09.952Z,16.10
2018-08-30T08:20:38.516Z,16.10
2018-08-30T08:23:06.960Z,16.00
2018-08-30T08:25:35.405Z,16.00
2018-08-30T08:28:03.843Z,16.00
2018-08-30T08:30:32.282Z,16.10
2018-08-30T08:33:00.693Z,16.10
2018-08-30T08:35:29.115Z,16.00
2018-08-30T08:37:57.525Z,16.00
2018-08-30T08:40:25.960Z,16.00
2018-08-30T08:42:54.545Z,16.00
2018-08-30T08:45:23.006Z,16.10
2018-08-30T08:47:51.491Z,16.10
2018-08-30T08:50:19.885Z,16.10
2018-08-30T08:52:48.337Z,16.20
2018-08-30T08:55:16.812Z,16.30
2018-08-30T08:57:45.237Z,16.30
2018-08-30T09:00:13.696Z,16.50
2018-08-30T09:02:42.104Z,16.70
2018-08-30T09:05:11.053Z,17.00
2018-08-30T09:07:39.527Z,17.30
2018-08-30T09:10:08.204Z,17.60
2018-08-30T09:12:36.625Z,17.80
2018-08-30T09:15:05.145Z,18.10
2018-08-30T09:17:33.579Z,18.40
2018-08-30T09:20:02.025Z,18.90
2018-08-30T09:22:30.472Z,19.50
2018-08-30T09:24:58.950Z,20.00
2018-08-30T09:27:27.388Z,20.70
2018-08-30T09:29:56.482Z,21.30
2018-08-30T09:32:24.999Z,22.00
2018-08-30T09:34:53.472Z,22.70
2018-08-30T09:37:22.010Z,23.30
2018-08-30T09:39:50.439Z,23.00
2018-08-30T09:42:18.876Z,22.60
2018-08-30T09:44:47.297Z,22.00
2018-08-30T09:47:15.728Z,21.40
2018-08-30T09:49:44.178Z,20.90
2018-08-30T09:52:12.641Z,20.50
2018-08-30T09:54:41.065Z,20.10
2018-08-30T09:57:09.715Z,19.80
2018-08-30T09:59:37.919Z,19.50
2018-08-30T10:02:11.895Z,19.30
2018-08-30T10:04:40.390Z,19.20
2018-08-30T10:07:08.780Z,19.20
2018-08-30T10:09:37.261Z,19.30
2018-08-30T10:12:05.736Z,19.30
2018-08-30T10:14:34.216Z,19.30
2018-08-30T10:17:02.684Z,19.20
2018-08-30T10:19:31.145Z,19.00
2018-08-30T10:21:59.596Z,18.80
2018-08-30T10:24:28.027Z,18.70
2018-08-30T10:26:56.436Z,18.70
2018-08-30T10:29:24.873Z,18.70
2018-08-30T10:31:53.305Z,18.80
2018-08-30T10:34:21.772Z,18.80
2018-08-30T10:36:50.272Z,18.80
2018-08-30T10:39:18.677Z,18.80
2018-08-30T10:41:47.112Z,18.70
2018-08-30T10:44:15.536Z,18.60
2018-08-30T10:46:43.955Z,18.60
2018-08-30T10:49:12.388Z,18.60
2018-08-30T10:51:40.800Z,18.70
2018-08-30T10:54:09.283Z,19.00
2018-08-30T10:56:37.723Z,19.60
2018-08-30T10:59:06.182Z,20.20
2018-08-30T11:01:34.661Z,20.40
2018-08-30T11:04:03.167Z,20.60
2018-08-30T11:06:31.653Z,21.20
2018-08-30T11:09:00.143Z,21.90
2018-08-30T11:11:28.564Z,23.20
2018-08-30T11:13:56.995Z,23.70
2018-08-30T11:16:25.470Z,24.40
2018-08-30T11:18:53.931Z,25.00
2018-08-30T11:21:22.363Z,24.90
2018-08-30T11:23:50.825Z,24.60
2018-08-30T11:26:19.256Z,24.50
2018-08-30T11:28:47.675Z,24.00
2018-08-30T11:31:16.171Z,23.10
2018-08-30T11:33:44.618Z,22.50
2018-08-30T11:36:13.084Z,21.80
2018-08-30T11:38:41.837Z,21.40
2018-08-30T11:41:10.317Z,21.20
2018-08-30T11:43:38.768Z,21.50
2018-08-30T11:46:07.289Z,22.40
2018-08-30T11:48:35.780Z,22.90
2018-08-30T11:51:04.361Z,22.80
2018-08-30T11:53:32.787Z,22.50
2018-08-30T11:56:01.978Z,22.10
2018-08-30T11:58:30.411Z,22.00
2018-08-30T12:00:59.101Z,22.30
2018-08-30T12:03:27.502Z,22.50
2018-08-30T12:05:56.032Z,23.20
2018-08-30T12:08:24.491Z,24.10
2018-08-30T12:10:52.999Z,24.30
2018-08-30T12:13:21.352Z,24.50
2018-08-30T12:15:49.832Z,24.50
2018-08-30T12:18:18.304Z,24.20
2018-08-30T12:20:46.889Z,24.10
2018-08-30T12:23:15.208Z,24.00
2018-08-30T12:25:43.661Z,23.90
2018-08-30T12:28:12.108Z,23.50
2018-08-30T12:30:40.579Z,23.10
2018-08-30T12:33:09.486Z,22.70
2018-08-30T12:35:38.024Z,22.30
2018-08-30T12:38:06.526Z,22.10
2018-08-30T12:40:34.965Z,21.90
2018-08-30T12:43:03.725Z,21.70
2018-08-30T12:45:31.883Z,21.60
2018-08-30T12:48:00.345Z,21.80
2018-08-30T12:50:29.282Z,22.00
2018-08-30T12:52:57.708Z,22.30
2018-08-30T12:55:26.169Z,22.30
2018-08-30T12:57:54.677Z,22.50
2018-08-30T13:00:23.097Z,22.50
2018-08-30T13:02:51.615Z,22.60
2018-08-30T13:05:20.071Z,22.30
2018-08-30T13:07:48.604Z,22.10
2018-08-30T13:10:17.234Z,21.90
2018-08-30T13:12:45.678Z,21.50
2018-08-30T13:15:14.163Z,21.40
2018-08-30T13:17:42.594Z,21.20
2018-08-30T13:20:11.017Z,21.10
2018-08-30T13:22:39.751Z,20.80
2018-08-30T13:25:08.175Z,20.70
2018-08-30T13:27:36.480Z,20.80
2018-08-30T13:30:05.629Z,21.00
2018-08-30T13:32:34.074Z,21.10
2018-08-30T13:35:02.742Z,21.20
2018-08-30T13:37:31.183Z,21.30
2018-08-30T13:39:59.560Z,21.50
2018-08-30T13:42:27.996Z,21.60
2018-08-30T13:44:56.677Z,21.80
2018-08-30T13:47:25.027Z,21.70
2018-08-30T13:49:53.261Z,21.60
2018-08-30T13:52:21.960Z,21.80
2018-08-30T13:54:50.337Z,21.90
2018-08-30T13:57:18.931Z,22.30
2018-08-30T13:59:47.430Z,22.80
2018-08-30T14:02:15.700Z,23.40
2018-08-30T14:04:44.079Z,23.90
2018-08-30T14:07:12.663Z,24.00
2018-08-30T14:09:41.071Z,23.50
2018-08-30T14:12:09.775Z,23.10
2018-08-30T14:14:38.019Z,23.10
2018-08-30T14:17:06.245Z,23.00
2018-08-30T14:19:34.689Z,22.70
2018-08-30T14:22:03.219Z,22.40
2018-08-30T14:24:31.820Z,22.10
2018-08-30T14:27:00.208Z,22.00
2018-08-30T14:29:28.547Z,21.80
2018-08-30T14:31:56.957Z,21.70
2018-08-30T14:34:25.402Z,21.50
2018-08-30T14:36:53.838Z,21.50
2018-08-30T14:39:22.299Z,21.70
2018-08-30T14:41:50.855Z,21.80
2018-08-30T14:44:19.193Z,21.90
2018-08-30T14:46:47.991Z,22.20
2018-08-30T14:49:16.424Z,22.30
2018-08-30T14:51:44.912Z,22.50
2018-08-30T14:54:13.402Z,22.50
2018-08-30T14:56:41.837Z,22.30
2018-08-30T14:59:10.297Z,22.00
2018-08-30T15:01:38.736Z,21.80
2018-08-30T15:04:07.347Z,21.70
2018-08-30T15:06:35.647Z,21.50
2018-08-30T15:09:04.441Z,21.30
2018-08-30T15:11:33.001Z,21.30
2018-08-30T15:14:01.342Z,21.60
2018-08-30T15:16:29.780Z,21.70
2018-08-30T15:18:58.180Z,21.80
2018-08-30T15:21:26.652Z,21.90
2018-08-30T15:23:55.064Z,22.00
2018-08-30T15:26:23.552Z,22.10
2018-08-30T15:28:52.002Z,22.20
2018-08-30T15:31:20.459Z,22.20
2018-08-30T15:33:48.927Z,22.30
2018-08-30T15:36:17.409Z,22.30
2018-08-30T15:38:45.846Z,22.40
2018-08-30T15:41:14.345Z,22.40
2018-08-30T15:43:42.755Z,22.50
2018-08-30T15:46:11.193Z,22.60
2018-08-30T15:48:39.759Z,22.70
2018-08-30T15:51:08.166Z,22.80
2018-08-30T15:53:36.627Z,22.80
2018-08-30T15:56:05.144Z,22.70
2018-08-30T15:58:34.480Z,22.60
2018-08-30T16:01:02.895Z,22.50
2018-08-30T16:03:31.440Z,22.40
2018-08-30T16:05:59.880Z,22.30
2018-08-30T16:08:28.315Z,22.20
2018-08-30T16:10:56.725Z,22.20
2018-08-30T16:13:25.151Z,22.40
2018-08-30T16:15:53.567Z,22.40
2018-08-30T16:18:22.008Z,22.40
2018-08-30T16:20:50.426Z,22.30
2018-08-30T16:23:26.751Z,22.30
2018-08-30T16:25:55.307Z,22.20
2018-08-30T16:28:24.597Z,22.10
2018-08-30T16:30:53.045Z,22.00
2018-08-30T16:33:21.573Z,21.90
2018-08-30T16:35:50.076Z,21.90
2018-08-30T16:38:18.527Z,21.90
2018-08-30T16:40:47.216Z,21.80
2018-08-30T16:43:15.640Z,21.70
2018-08-30T16:45:44.588Z,21.60
2018-08-30T16:48:13.011Z,21.50
2018-08-30T16:50:41.471Z,21.40
2018-08-30T16:53:09.922Z,21.30
2018-08-30T16:55:38.422Z,21.10
2018-08-30T16:58:06.841Z,21.00
2018-08-30T17:00:35.291Z,20.90
2018-08-30T17:03:04.001Z,20.80
2018-08-30T17:05:32.458Z,20.60
2018-08-30T17:08:00.873Z,20.60
2018-08-30T17:10:29.327Z,20.60
2018-08-30T17:12:58.284Z,20.60
2018-08-30T17:15:26.718Z,20.50
2018-08-30T17:17:55.365Z,20.50
2018-08-30T17:20:26.339Z,20.40
2018-08-30T17:22:54.769Z,20.30
2018-08-30T17:25:23.217Z,20.10
2018-08-30T17:27:51.622Z,20.10
2018-08-30T17:30:20.076Z,20.00
2018-08-30T17:32:48.493Z,19.90
2018-08-30T17:35:16.924Z,19.80
2018-08-30T17:37:45.340Z,19.80
2018-08-30T17:40:13.776Z,19.60
2018-08-30T17:42:42.196Z,19.50
2018-08-30T17:45:10.702Z,19.50
2018-08-30T17:47:39.123Z,19.40
2018-08-30T17:50:07.768Z,19.30
2018-08-30T17:52:36.216Z,19.10
2018-08-30T17:55:04.696Z,18.90
2018-08-30T17:57:33.136Z,18.70
2018-08-30T18:00:01.616Z,18.50
2018-08-30T18:02:30.061Z,18.30
2018-08-30T18:04:58.664Z,18.20
2018-08-30T18:07:27.096Z,18.10
2018-08-30T18:09:55.515Z,18.00
2018-08-30T18:12:23.953Z,17.90
2018-08-30T18:14:52.364Z,17.80
2018-08-30T18:17:20.803Z,17.60
2018-08-30T18:19:49.220Z,17.60
2018-08-30T18:22:17.640Z,17.40
2018-08-30T18:24:46.584Z,17.30
2018-08-30T18:27:15.040Z,17.10
2018-08-30T18:29:43.509Z,17.00
2018-08-30T18:32:12.051Z,16.90
2018-08-30T18:34:40.468Z,16.80
2018-08-30T18:37:08.901Z,16.70
2018-08-30T18:39:37.335Z,16.70
2018-08-30T18:42:05.832Z,16.70
2018-08-30T18:44:34.260Z,16.70
2018-08-30T18:47:02.709Z,16.70
2018-08-30T18:49:31.185Z,16.60
2018-08-30T18:51:59.660Z,16.50
2018-08-30T18:54:28.103Z,16.50
2018-08-30T18:56:56.536Z,16.50
2018-08-30T18:59:24.983Z,16.40
2018-08-30T19:01:53.488Z,16.40
2018-08-30T19:04:21.845Z,16.40
2018-08-30T19:06:50.258Z,16.40
2018-08-30T19:09:18.683Z,16.40
2018-08-30T19:11:47.085Z,16.30
2018-08-30T19:14:15.528Z,16.20
2018-08-30T19:16:49.320Z,16.10
2018-08-30T19:19:19.922Z,16.10
2018-08-30T19:21:48.356Z,16.10
2018-08-30T19:24:22.112Z,16.00
2018-08-30T19:26:50.843Z,15.90
2018-08-30T19:29:19.674Z,15.90
2018-08-30T19:31:48.151Z,15.90
2018-08-30T19:34:16.744Z,15.90
2018-08-30T19:36:45.126Z,15.90
2018-08-30T19:39:14.874Z,15.90
2018-08-30T19:41:43.985Z,15.80
2018-08-30T19:44:12.414Z,15.70
2018-08-30T19:46:40.850Z,15.50
2018-08-30T19:49:09.281Z,15.30
2018-08-30T19:51:37.719Z,15.20
2018-08-30T19:54:06.222Z,15.10
2018-08-30T19:56:35.224Z,15.10
2018-08-30T19:59:03.947Z,15.00
2018-08-30T20:01:32.396Z,14.90
2018-08-30T20:04:00.845Z,14.80
2018-08-30T20:06:29.333Z,14.80
2018-08-30T20:08:57.756Z,14.80
2018-08-30T20:11:26.302Z,14.90
2018-08-30T20:13:54.726Z,14.80
2018-08-30T20:16:23.157Z,14.70
2018-08-30T20:18:51.568Z,14.60
2018-08-30T20:21:20.037Z,14.60
2018-08-30T20:23:48.449Z,14.60
2018-08-30T20:26:16.888Z,14.60
2018-08-30T20:28:45.287Z,14.60
2018-08-30T20:31:13.748Z,14.60
2018-08-30T20:33:42.161Z,14.50
2018-08-30T20:36:10.611Z,14.30
2018-08-30T20:38:39.056Z,14.30
2018-08-30T20:41:07.541Z,14.40
2018-08-30T20:43:36.041Z,14.30
2018-08-30T20:46:04.492Z,14.40
2018-08-30T20:48:32.957Z,14.40
2018-08-30T20:51:01.393Z,14.20
2018-08-30T20:53:29.899Z,14.20
2018-08-30T20:55:58.300Z,14.30
2018-08-30T20:58:26.747Z,14.30
2018-08-30T21:00:55.165Z,14.30
2018-08-30T21:03:23.619Z,14.20
2018-08-30T21:05:52.033Z,14.20
2018-08-30T21:08:20.490Z,14.20
2018-08-30T21:10:48.904Z,14.10
2018-08-30T21:13:17.452Z,14.00
2018-08-30T21:15:45.904Z,14.00
2018-08-30T21:18:14.398Z,14.00
2018-08-30T21:20:42.832Z,13.90
2018-08-30T21:23:11.316Z,13.90
2018-08-30T21:25:39.840Z,13.80
2018-08-30T21:28:08.336Z,13.80
2018-08-30T21:30:36.788Z,13.70
2018-08-30T21:33:05.475Z,13.70
2018-08-30T21:35:33.919Z,13.60
2018-08-30T21:38:02.385Z,13.50
2018-08-30T21:40:30.796Z,13.50
2018-08-30T21:42:59.268Z,13.40
2018-08-30T21:45:27.676Z,13.40
2018-08-30T21:47:56.099Z,13.40
2018-08-30T21:50:24.536Z,13.30
2018-08-30T21:52:52.992Z,13.20
2018-08-30T21:55:21.475Z,13.20
2018-08-30T21:57:49.892Z,13.20
2018-08-30T22:00:18.405Z,13.10
2018-08-30T22:02:46.854Z,13.10
2018-08-30T22:05:15.289Z,13.10
2018-08-30T22:07:43.709Z,13.00
2018-08-30T22:10:12.240Z,13.00
2018-08-30T22:12:40.662Z,12.90
2018-08-30T22:15:09.097Z,12.90
2018-08-30T22:17:37.544Z,12.90
2018-08-30T22:20:06.013Z,12.80
2018-08-30T22:22:34.500Z,12.70
2018-08-30T22:25:02.931Z,12.60
2018-08-30T22:27:31.352Z,12.40
2018-08-30T22:29:59.812Z,12.30
2018-08-30T22:32:28.215Z,12.20
2018-08-30T22:34:56.627Z,12.20
2018-08-30T22:37:25.041Z,12.20
2018-08-30T22:39:53.473Z,12.20
2018-08-30T22:42:21.881Z,12.20
2018-08-30T22:44:50.308Z,12.20
2018-08-30T22:47:18.716Z,12.20
2018-08-30T22:49:47.264Z,12.20
2018-08-30T22:52:15.663Z,12.20
2018-08-30T22:54:44.208Z,12.20
2018-08-30T22:57:12.610Z,12.30
2018-08-30T22:59:41.024Z,12.30
2018-08-30T23:02:09.461Z,12.30
2018-08-30T23:04:37.874Z,12.20
2018-08-30T23:07:06.328Z,12.30
2018-08-30T23:09:34.894Z,12.30
2018-08-30T23:12:03.361Z,12.30
2018-08-30T23:14:31.767Z,12.30
2018-08-30T23:17:00.739Z,12.10
2018-08-30T23:19:29.164Z,12.00
2018-08-30T23:21:57.601Z,11.90
2018-08-30T23:24:26.015Z,11.80
2018-08-30T23:26:54.470Z,11.70
2018-08-30T23:29:22.896Z,11.70
2018-08-30T23:31:51.352Z,11.70
2018-08-30T23:34:19.768Z,11.80
2018-08-30T23:36:48.211Z,11.80
2018-08-30T23:39:16.636Z,11.90
2018-08-30T23:41:45.057Z,11.90
2018-08-30T23:44:13.485Z,12.00
2018-08-30T23:46:41.955Z,11.80
2018-08-30T23:49:10.420Z,11.70
2018-08-30T23:51:38.919Z,11.70
2018-08-30T23:54:07.432Z,11.70
2018-08-30T23:56:35.878Z,11.60
2018-08-30T23:59:15.487Z,11.50
